Weerstation
Sluispark-LeuvenLeuven-Sluispark

Weerstation
Wilsele-PutkapelWilsele-Putkapel



Nabijgelegen vliegvelden - METAR rapporten

   
EBBR - Wilsele bij Leuven
Gewijzigd: 18-05-2021 12:50
Grotendeels bewolkt    Wind: WNW 18.5 km/h
Grotendeels bewolkt
Wind: Wind: WNW 18.5 km/h
Temperatuur: 14°C
Dauwpunt: 6°C
Vochtigheid: 59%
Barometer: 1013 hPa
Bewolking: Grotendeels bewolkt
Zicht: meer dan 10 km
Bewolking: Grotendeels bewolkt 1005.8 m
EBBR 181050Z 29010KT 250V320 9999 BKN033 14/06 Q1013 NOSIG
EBAW - Antwerp
Gewijzigd: 18-05-2021 13:20
Gedeeltelijk bewolkt    Wind: WNW 24.1 km/h
Gedeeltelijk bewolkt
Wind: Wind: WNW 24.1 km/h
Temperatuur: 15°C
Dauwpunt: 5°C
Vochtigheid: 51%
Barometer: 1013 hPa
Bewolking: Gedeeltelijk bewolkt
Zicht: meer dan 10 km
Bewolking: Gedeeltelijk bewolkt 1219.2 m
EBAW 181120Z 29013KT 9999 SCT040 15/05 Q1013 NOSIG
EBLG - Li├Ęge
Gewijzigd: 18-05-2021 13:20
Gedeeltelijk bewolkt    Wind: WZW 11.1 km/h
Gedeeltelijk bewolkt
Wind: Wind: WZW 11.1 km/h
Temperatuur: 12°C
Dauwpunt: 8°C
Vochtigheid: 77%
Barometer: 1013 hPa
Bewolking: Gedeeltelijk bewolkt
Zicht: meer dan 10 km
Bewolking: Licht bewolkt 365.8 m,
Gedeeltelijk bewolkt 609.6 m
EBLG 181120Z 24006KT 190V280 9999 FEW012 SCT020TCU 12/08 Q1013 RETS TEMPO 3000 TSRA SCT020CB
EBCV - Mons/Bergen
Gewijzigd: 18-05-2021 12:55
Gedeeltelijk bewolkt    Wind: WNW 13 km/h
Gedeeltelijk bewolkt
Wind: Wind: WNW 13 km/h
Temperatuur: 15°C
Dauwpunt: 9°C
Vochtigheid: 68%
Barometer: 1013 hPa
Bewolking: Gedeeltelijk bewolkt
Zicht: meer dan 10 km
Bewolking: Licht bewolkt 944.9 m,
Gedeeltelijk bewolkt 1767.8 m
EBCV 181055Z AUTO 30007KT 9999 FEW031/// SCT058/// 15/09 Q1013 BLU
EHBK - Maastricht
Gewijzigd: 18-05-2021 12:55
Gedeeltelijk bewolkt    Wind: ZW 16.7 km/h
Gedeeltelijk bewolkt
Wind: Wind: ZW 16.7 km/h
Temperatuur: 13°C
Dauwpunt: 8°C
Vochtigheid: 72%
Barometer: 1013 hPa
Bewolking: Gedeeltelijk bewolkt
Zicht: meer dan 10 km
Bewolking: Gedeeltelijk bewolkt
EHBK 181055Z AUTO 23009KT 200V270 9999 NSC 13/08 Q1013 NOSIG
ELLX - Luxemburg
Gewijzigd: 18-05-2021 13:20
Grotendeels bewolkt    Wind: WZW 24.1 km/h
Grotendeels bewolkt
Wind: Wind: WZW 24.1 km/h
Temperatuur: 10°C
Voelt als: 7°C
Dauwpunt: 7°C
Vochtigheid: 82%
Barometer: 1014 hPa
Bewolking: Grotendeels bewolkt
Zicht: meer dan 10 km
Bewolking: Licht bewolkt 304.8 m,
Gedeeltelijk bewolkt 792.5 m,
Grotendeels bewolkt 1249.7 m
ELLX 181120Z 24013KT 9999 FEW010 SCT026CB BKN041 10/07 Q1014 RESHRA TEMPO 25015G30KT 4000 SHRA
EBOS - Oostende
Gewijzigd: 18-05-2021 13:20
Licht bewolkt    Wind: WNW 14.8 km/h
Licht bewolkt
Wind: Wind: WNW 14.8 km/h
Temperatuur: 13°C
Dauwpunt: 6°C
Vochtigheid: 63%
Barometer: 1014 hPa
Bewolking: Licht bewolkt
Zicht: meer dan 10 km
Bewolking: Licht bewolkt 792.5 m
EBOS 181120Z 29008KT 9999 FEW026 13/06 Q1014 NOSIG
  

Script ontwikkeld door  Saratoga-weather.org Aangepast voor de template door  Weerstation Leuven

U vindt ons ook hier:

UK Metoffice

WeatherCloud

European Weather Network

Weather Underground

Benelux Weather Network

AWEKAS

WeatherlinkIP

HAMweather, WeatherForYou, PWS Weather

Het Weer Aktueel

Apparatuur in gebruik:

Weer-station
Davis VP2 weatherstation

Weer-programma
Meteobridge

Weer-computer
D-Link DIR-505

Webleverancier
Robohost

Davis VP2 weatherstation

Meteobridge

D-Link DIR-505

Robohost